DAAT/TMR METAR and TAF weather

Enter ICAO airport designator
Station Type Date Time Source
DAAT METAR 2021/01/17 20:00 UTC NOAA

DAAT 172000Z 10009KT CAVOK 14/M17 Q1022


Station Type Date Time Source
DAAT Decoded METAR 2021/01/17 20:00 UTC NOAA

Tamanrasset / Aguenna, Algeria (DAAT) 22-49N 005-28E
Jan 17, 2021 - 03:00 PM EST / 2021.01.17 2000 UTC
Wind: from the E (100 degrees) at 10 MPH (9 KT):0
Visibility: greater than 7 mile(s):0
Temperature: 57 F (14 C)
Dew Point: 1 F (-17 C)
Relative Humidity: 10%
Pressure (altimeter): 30.18 in. Hg (1022 hPa)
ob: DAAT 172000Z 10009KT CAVOK 14/M17 Q1022
cycle: 20

Station Type Date Time Source
DAAT TAF 2021/01/17 18:33 UTC NOAA

TAF DAAT 171700Z 1718/1818 10012KT CAVOK PROB30
TEMPO 1722/1803 10015G25KT
TEMPO 1814/1818 34012KT

Example: see airport list